Time;durP1;ratioP1;P1;durP2;ratioP2;P2;SDS_P1;SDS_P2;PMS_P1;PMS_P2;Temp;Humidity;BMP_temperature;BMP_pressure;BME280_temperature;BME280_humidity;BME280_pressure;Samples;Min_cycle;Max_cycle;Signal;HPM_P1;HPM_P2
2022/05/24 00:00:00;;;;;;;12.05;4.05;;;;;;;14.08;85.48;100138.66;5039103;28;20388;-78
2022/05/24 00:02:26;;;;;;;9.82;3.88;;;;;;;14.05;85.39;100130.97;5038901;28;20038;-78
2022/05/24 00:04:51;;;;;;;6.60;3.33;;;;;;;14.02;85.32;100137.28;5020632;28;20356;-78
2022/05/24 00:07:16;;;;;;;6.95;3.50;;;;;;;14.04;85.22;100131.06;5038952;28;20029;-78
2022/05/24 00:09:42;;;;;;;4.70;3.63;;;;;;;14.05;85.10;100133.59;5020712;28;20037;-78
2022/05/24 00:12:08;;;;;;;10.35;3.50;;;;;;;14.06;84.80;100132.66;5038882;28;20049;-77
2022/05/24 00:17:17;;;;;;;11.77;3.30;;;;;;;14.02;84.62;100136.44;5038977;28;20060;-78
2022/05/24 00:19:43;;;;;;;8.18;3.50;;;;;;;14.03;84.54;100138.13;5021154;28;20333;-78
2022/05/24 00:22:09;;;;;;;8.73;3.20;;;;;;;14.04;84.85;100138.97;5038685;28;20045;-78
2022/05/24 00:24:34;;;;;;;11.23;4.03;;;;;;;14.02;85.07;100139.94;5038687;28;20068;-78
2022/05/24 00:27:00;;;;;;;14.02;4.88;;;;;;;14.02;85.05;100142.56;5038765;28;20049;-78
2022/05/24 00:29:25;;;;;;;8.23;6.68;;;;;;;13.99;85.04;100136.66;5025795;28;20041;-78
2022/05/24 00:31:51;;;;;;;8.90;6.35;;;;;;;14.02;84.44;100133.78;5039059;28;20104;-78
2022/05/24 00:34:16;;;;;;;10.75;6.68;;;;;;;14.04;84.37;100136.34;5025670;28;20048;-77
2022/05/24 00:36:42;;;;;;;10.95;8.32;;;;;;;14.05;84.24;100141.50;5004136;28;20033;-77
2022/05/24 00:39:07;;;;;;;12.77;8.07;;;;;;;14.05;83.92;100132.75;5038035;28;20041;-78
2022/05/24 00:41:41;;;;;;;15.38;8.35;;;;;;;14.05;83.92;100124.88;5039221;28;20065;-78
2022/05/24 00:44:20;;;;;;;10.15;7.30;;;;;;;14.06;84.02;100110.75;5038280;28;20045;-78
2022/05/24 00:47:00;;;;;;;9.32;7.00;;;;;;;14.07;83.50;100104.53;5020630;28;20096;-78
2022/05/24 00:49:31;;;;;;;16.70;8.48;;;;;;;14.07;83.37;100096.66;5038521;28;20096;-78
2022/05/24 00:52:03;;;;;;;9.38;6.70;;;;;;;14.07;83.44;100115.91;5038635;28;20101;-78
2022/05/24 00:54:29;;;;;;;9.48;7.40;;;;;;;14.06;83.62;100130.03;5038312;28;20064;-78
2022/05/24 00:57:11;;;;;;;11.85;7.40;;;;;;;14.06;83.46;100143.19;5038695;28;20037;-78
2022/05/24 00:59:44;;;;;;;9.98;7.40;;;;;;;14.06;83.20;100142.34;5038621;28;20109;-78
2022/05/24 01:02:43;;;;;;;8.48;6.55;;;;;;;14.06;83.18;100150.22;5027922;28;20033;-78
2022/05/24 01:05:15;;;;;;;8.98;6.15;;;;;;;14.06;82.89;100142.34;4999641;28;20052;-78
2022/05/24 01:07:41;;;;;;;11.30;6.88;;;;;;;14.06;82.70;100150.22;5032760;28;20254;-78
2022/05/24 01:10:11;;;;;;;8.70;5.10;;;;;;;14.07;82.65;100144.03;5018675;28;20029;-78
2022/05/24 01:12:58;;;;;;;9.95;5.90;;;;;;;14.06;82.46;100147.59;5033751;28;20038;-78
2022/05/24 01:15:25;;;;;;;10.45;5.32;;;;;;;14.06;82.58;100142.34;5026831;28;20050;-78
2022/05/24 01:17:51;;;;;;;7.85;4.53;;;;;;;14.06;82.37;100140.56;5041166;28;20026;-78
2022/05/24 01:20:17;;;;;;;4.93;4.47;;;;;;;14.05;82.28;100141.50;5032652;28;20388;-78
2022/05/24 01:23:02;;;;;;;6.95;4.10;;;;;;;14.06;82.33;100137.06;5022196;28;20042;-78
2022/05/24 01:25:33;;;;;;;6.55;4.13;;;;;;;14.04;82.33;100139.78;5040687;28;20048;-77
2022/05/24 01:28:02;;;;;;;5.85;3.45;;;;;;;14.04;82.08;100137.16;5023635;28;20033;-78
2022/05/24 01:30:27;;;;;;;3.75;3.13;;;;;;;14.05;82.27;100140.66;5034002;28;20325;-78
2022/05/24 01:38:24;;;;;;;8.63;4.03;;;;;;;14.01;81.88;100140.84;5022884;28;20100;-77
2022/05/24 01:40:53;;;;;;;5.55;3.88;;;;;;;14.02;82.04;100139.06;5030398;28;20241;-78
2022/05/24 01:43:21;;;;;;;4.22;3.08;;;;;;;14.01;81.82;100129.50;5039461;28;20095;-77
2022/05/24 01:45:50;;;;;;;;;;;;;;;14.01;82.12;100130.31;5041645;28;20076;-78
2022/05/24 01:48:19;;;;;;;5.97;3.15;;;;;;;14.00;81.85;100130.44;5025027;28;19913;-78
2022/05/24 01:50:47;;;;;;;6.05;4.68;;;;;;;13.98;81.60;100125.25;5041501;28;20037;-78
2022/05/24 01:53:27;;;;;;;9.63;5.35;;;;;;;13.96;81.40;100121.06;5022963;28;20343;-78
2022/05/24 01:55:57;;;;;;;8.65;4.88;;;;;;;13.95;81.61;100120.22;5021978;28;20204;-78
2022/05/24 01:58:29;;;;;;;6.00;4.43;;;;;;;13.95;81.64;100120.22;5034938;28;20037;-78
2022/05/24 02:01:07;;;;;;;6.25;4.38;;;;;;;13.95;81.72;100128.13;5040893;28;20052;-78
2022/05/24 02:03:32;;;;;;;11.05;6.20;;;;;;;13.95;81.90;100121.97;5040101;28;20036;-78
2022/05/24 02:05:58;;;;;;;6.78;4.53;;;;;;;13.95;81.80;100119.34;5040189;28;20044;-78
2022/05/24 02:08:24;;;;;;;12.35;5.20;;;;;;;13.95;81.79;100121.97;5037352;28;20038;-77
2022/05/24 02:11:02;;;;;;;11.10;5.18;;;;;;;13.95;82.06;100124.63;5038720;28;20045;-78
2022/05/24 02:13:33;;;;;;;6.80;4.77;;;;;;;13.94;82.07;100123.78;5032633;28;20105;-78
2022/05/24 02:16:03;;;;;;;6.72;5.53;;;;;;;13.94;81.98;100129.03;5036208;28;20042;-78
2022/05/24 02:18:30;;;;;;;6.13;5.38;;;;;;;13.94;82.39;100122.94;5025146;28;20026;-77
2022/05/24 02:20:55;;;;;;;10.82;6.63;;;;;;;13.92;82.11;100132.72;5039366;28;20045;-78
2022/05/24 02:23:21;;;;;;;9.60;6.05;;;;;;;13.91;82.02;100120.50;5009754;28;20042;-77
2022/05/24 02:25:55;;;;;;;6.20;5.43;;;;;;;13.91;82.09;100123.97;5037138;28;20095;-78
2022/05/24 02:28:24;;;;;;;10.02;6.20;;;;;;;13.89;82.02;100102.19;5039340;28;20089;-78
2022/05/24 02:30:53;;;;;;;10.10;6.55;;;;;;;13.89;82.21;100106.59;5040469;28;20241;-78
2022/05/24 02:33:20;;;;;;;11.02;6.82;;;;;;;13.89;81.92;100115.34;5019094;28;20093;-78
2022/05/24 02:35:46;;;;;;;8.77;7.45;;;;;;;13.87;82.16;100108.50;5034966;28;20053;-77
2022/05/24 02:38:11;;;;;;;6.70;6.13;;;;;;;13.86;82.01;100107.66;5024587;28;20021;-75
2022/05/24 02:43:21;;;;;;;10.48;6.43;;;;;;;13.87;82.18;100111.13;5022347;28;20261;-74
2022/05/24 02:45:46;;;;;;;10.27;6.10;;;;;;;13.85;82.02;100113.84;5038125;28;20045;-75
2022/05/24 02:48:12;;;;;;;8.98;5.90;;;;;;;13.83;82.12;100116.59;5032288;28;20064;-75
2022/05/24 02:50:37;;;;;;;7.85;5.50;;;;;;;13.84;82.29;100114.78;5027554;28;20037;-75
2022/05/24 02:53:02;;;;;;;15.30;6.78;;;;;;;13.85;82.26;100115.66;5004774;28;20250;-78
2022/05/24 02:55:28;;;;;;;12.02;6.22;;;;;;;13.82;82.00;100111.41;5009533;28;20286;-78
2022/05/24 02:57:53;;;;;;;7.07;5.70;;;;;;;13.82;81.98;100114.91;5021560;28;20100;-78
2022/05/24 03:00:21;;;;;;;9.15;5.32;;;;;;;13.82;82.27;100120.19;5029407;28;20064;-78
2022/05/24 03:02:49;;;;;;;8.50;5.30;;;;;;;13.83;82.25;100132.38;5038917;28;20029;-78
2022/05/24 03:05:15;;;;;;;4.97;4.57;;;;;;;13.84;82.29;100125.31;5017580;28;20042;-78
2022/05/24 03:10:26;;;;;;;5.97;4.57;;;;;;;13.83;82.20;100132.38;5032635;28;20106;-78
2022/05/24 03:15:37;;;;;;;9.90;4.32;;;;;;;13.85;81.76;100127.03;5020637;28;20108;-78
2022/05/24 03:18:02;;;;;;;8.13;4.50;;;;;;;13.84;81.84;100133.22;5037744;28;20076;-78
2022/05/24 03:20:28;;;;;;;6.88;4.57;;;;;;;13.85;81.91;100134.91;4998692;28;20025;-78
2022/05/24 03:22:53;;;;;;;6.55;3.85;;;;;;;13.85;82.24;100140.19;5038462;28;20029;-78
2022/05/24 03:25:19;;;;;;;7.97;3.60;;;;;;;13.83;82.16;100150.81;5012160;28;20068;-78
2022/05/24 03:27:48;;;;;;;8.77;4.38;;;;;;;13.83;82.04;100158.69;5038322;28;20041;-78
2022/05/24 03:30:14;;;;;;;7.80;3.72;;;;;;;13.78;81.91;100147.63;5019584;28;20112;-78
2022/05/24 03:32:39;;;;;;;10.05;4.18;;;;;;;13.76;82.19;100160.03;5035533;28;20388;-78
2022/05/24 03:35:07;;;;;;;7.32;3.40;;;;;;;13.76;82.30;100154.78;5019614;28;20037;-78
2022/05/24 03:37:32;;;;;;;3.85;2.63;;;;;;;13.75;82.05;100146.97;5038071;28;21182;-78
2022/05/24 03:39:58;;;;;;;7.50;2.95;;;;;;;13.77;82.39;100150.34;5038502;28;20041;-78
2022/05/24 03:42:24;;;;;;;5.25;3.30;;;;;;;13.76;82.18;100165.31;5037804;28;20036;-78
2022/05/24 03:44:49;;;;;;;7.07;3.55;;;;;;;13.75;82.42;100157.50;5035611;28;20076;-78
2022/05/24 03:47:15;;;;;;;8.98;4.45;;;;;;;13.74;82.53;100163.72;5012005;28;20045;-78
2022/05/24 03:49:40;;;;;;;10.13;4.75;;;;;;;13.74;82.66;100177.72;5038045;28;20101;-78
2022/05/24 03:52:06;;;;;;;9.88;4.68;;;;;;;13.73;82.75;100176.00;5029367;28;20284;-78
2022/05/24 03:54:32;;;;;;;9.52;4.78;;;;;;;13.71;82.39;100180.53;5015339;28;20033;-79
2022/05/24 03:59:42;;;;;;;11.13;5.53;;;;;;;13.69;82.59;100197.38;5003083;28;20120;-78
2022/05/24 04:02:07;;;;;;;9.38;5.88;;;;;;;13.67;82.36;100202.72;5033395;28;20381;-78
2022/05/24 04:04:32;;;;;;;7.82;5.45;;;;;;;13.64;82.80;100200.28;5004205;28;20394;-78
2022/05/24 04:06:58;;;;;;;11.15;6.07;;;;;;;13.64;82.93;100202.91;5019119;28;20221;-78
2022/05/24 04:09:23;;;;;;;5.78;5.10;;;;;;;13.63;83.02;100209.97;5026864;28;20104;-79
2022/05/24 04:11:49;;;;;;;11.73;6.25;;;;;;;13.61;82.89;100201.34;5036346;28;20467;-79
2022/05/24 04:14:14;;;;;;;14.65;6.15;;;;;;;13.62;82.75;100199.53;5025298;28;20375;-78
2022/05/24 04:16:39;;;;;;;7.00;5.30;;;;;;;13.61;82.70;100196.06;5014526;28;20051;-78
2022/05/24 04:19:05;;;;;;;11.15;5.32;;;;;;;13.56;82.59;100189.41;5036327;28;20037;-78
2022/05/24 04:21:31;;;;;;;7.28;4.22;;;;;;;13.57;82.15;100191.97;5036005;28;20045;-79
2022/05/24 04:23:57;;;;;;;6.03;4.15;;;;;;;13.57;82.20;100191.97;5036522;28;20110;-78
2022/05/24 04:26:23;;;;;;;7.57;4.28;;;;;;;13.59;82.34;100194.50;5035371;28;20055;-79
2022/05/24 04:28:48;;;;;;;5.50;3.80;;;;;;;13.57;82.29;100202.47;5028486;28;20100;-79
2022/05/24 04:31:13;;;;;;;3.75;3.40;;;;;;;13.58;82.34;100198.06;5024764;28;20040;-78
2022/05/24 04:33:39;;;;;;;8.45;4.00;;;;;;;13.56;82.33;100203.41;5018659;28;20072;-79
2022/05/24 04:36:05;;;;;;;4.40;3.30;;;;;;;13.55;82.56;100204.38;5018392;28;20038;-79
2022/05/24 04:38:30;;;;;;;7.05;3.13;;;;;;;13.56;82.53;100200.78;5027329;28;20228;-78
2022/05/24 04:43:39;;;;;;;5.75;2.75;;;;;;;13.53;82.25;100198.34;5031530;28;20088;-78
2022/05/24 04:46:05;;;;;;;6.30;3.58;;;;;;;13.54;82.18;100194.78;5017284;28;20042;-78
2022/05/24 04:48:30;;;;;;;6.18;3.20;;;;;;;13.55;82.49;100190.34;4991499;28;20041;-78
2022/05/24 04:50:57;;;;;;;3.42;2.70;;;;;;;13.55;82.29;100198.25;5010122;28;20058;-78
2022/05/24 04:53:25;;;;;;;6.50;2.67;;;;;;;13.55;82.60;100199.09;5010404;28;20036;-78
2022/05/24 04:55:50;;;;;;;5.50;2.70;;;;;;;13.54;82.28;100194.78;5024939;28;20244;-78
2022/05/24 04:58:17;;;;;;;5.10;3.03;;;;;;;13.54;82.00;100207.94;5020122;28;20045;-78
2022/05/24 05:00:43;;;;;;;4.72;2.38;;;;;;;13.55;81.51;100214.03;5007222;28;20341;-78
2022/05/24 05:03:10;;;;;;;4.38;2.65;;;;;;;13.54;81.70;100218.44;5033290;28;20033;-78
2022/05/24 05:05:37;;;;;;;6.65;2.65;;;;;;;13.52;81.85;100217.72;5003327;28;20037;-78
2022/05/24 05:08:04;;;;;;;5.60;2.45;;;;;;;13.52;81.73;100222.97;5004753;28;20261;-78
2022/05/24 05:10:30;;;;;;;7.30;2.97;;;;;;;13.52;81.96;100236.13;5008613;28;20237;-78
2022/05/24 05:12:55;;;;;;;7.60;2.65;;;;;;;13.49;81.59;100238.94;5001955;28;20034;-78
2022/05/24 05:15:20;;;;;;;3.80;2.63;;;;;;;13.47;81.71;100234.72;5007896;28;20033;-78
2022/05/24 05:17:46;;;;;;;2.78;1.98;;;;;;;13.45;81.55;100242.72;5019478;28;20448;-78
2022/05/24 05:20:12;;;;;;;6.05;2.33;;;;;;;13.40;81.64;100255.28;5026154;28;20288;-78
2022/05/24 05:22:38;;;;;;;4.60;2.45;;;;;;;13.38;81.48;100247.50;5013628;28;20048;-78
2022/05/24 05:25:05;;;;;;;3.22;2.10;;;;;;;13.36;81.45;100249.38;5007471;28;20042;-79
2022/05/24 05:27:30;;;;;;;6.43;2.25;;;;;;;13.35;81.15;100250.34;5005370;28;20026;-78
2022/05/24 05:32:40;;;;;;;4.22;2.50;;;;;;;13.34;81.68;100239.91;5005476;28;20045;-79
2022/05/24 05:35:06;;;;;;;4.00;2.20;;;;;;;13.35;81.79;100255.59;5029038;28;20029;-78
2022/05/24 05:37:32;;;;;;;3.70;2.53;;;;;;;13.35;81.59;100255.59;4991248;28;20047;-78
2022/05/24 05:39:57;;;;;;;3.03;2.50;;;;;;;13.36;81.63;100272.22;4998194;28;20049;-78
2022/05/24 05:42:24;;;;;;;5.03;3.10;;;;;;;13.35;81.55;100259.97;5011069;28;20309;-78
2022/05/24 05:44:50;;;;;;;4.35;2.50;;;;;;;13.35;81.60;100275.75;5035149;28;20127;-78
2022/05/24 05:47:17;;;;;;;3.47;2.40;;;;;;;13.37;81.73;100285.28;5019366;28;20336;-78
2022/05/24 05:49:42;;;;;;;5.00;2.97;;;;;;;13.37;81.82;100281.78;5036732;28;20082;-78
2022/05/24 05:52:08;;;;;;;3.90;2.90;;;;;;;13.38;81.51;100286.09;5025473;28;20053;-78
2022/05/24 05:54:33;;;;;;;6.07;3.50;;;;;;;13.37;82.06;100295.78;5034568;28;20040;-78
2022/05/24 05:57:00;;;;;;;3.47;3.17;;;;;;;13.35;81.77;100292.41;5027512;28;20042;-78
2022/05/24 05:59:25;;;;;;;5.90;3.55;;;;;;;13.36;81.87;100295.88;5009256;28;20562;-78
2022/05/24 06:01:51;;;;;;;4.20;3.45;;;;;;;13.36;82.13;100296.72;5037968;28;20057;-78
2022/05/24 06:04:16;;;;;;;5.03;4.63;;;;;;;13.33;81.83;100299.53;5037869;28;20033;-78
2022/05/24 06:06:45;;;;;;;4.63;3.67;;;;;;;13.33;82.23;100296.06;5038515;28;20256;-78
2022/05/24 06:09:10;;;;;;;13.73;4.28;;;;;;;13.33;82.16;100298.69;5030989;28;20033;-78
2022/05/24 06:11:36;;;;;;;4.82;4.07;;;;;;;13.30;81.60;100304.09;5038792;28;20311;-78
2022/05/24 06:14:01;;;;;;;3.92;3.47;;;;;;;13.30;81.86;100307.59;5019962;28;20100;-78
2022/05/24 06:16:27;;;;;;;8.80;4.45;;;;;;;13.32;81.74;100312.78;5037740;28;20230;-78
2022/05/24 06:18:52;;;;;;;6.82;4.13;;;;;;;13.31;81.99;100311.91;5036868;28;20063;-78
2022/05/24 06:21:18;;;;;;;4.95;3.85;;;;;;;13.32;81.88;100308.38;5035870;28;20048;-78
2022/05/24 06:23:43;;;;;;;5.53;4.05;;;;;;;13.30;82.27;100309.34;5038591;28;20049;-78
2022/05/24 06:26:08;;;;;;;4.00;3.60;;;;;;;13.31;82.13;100321.59;5037828;28;20321;-78
2022/05/24 06:28:34;;;;;;;5.38;3.70;;;;;;;13.29;81.89;100324.28;5009715;28;20218;-78
2022/05/24 06:31:00;;;;;;;4.50;2.60;;;;;;;13.25;81.44;100341.19;5034889;28;20367;-78
2022/05/24 06:33:26;;;;;;;3.55;2.40;;;;;;;13.24;81.53;100350.00;5031265;28;20333;-79
2022/05/24 06:35:51;;;;;;;3.75;2.22;;;;;;;13.22;81.21;100338.75;5018964;28;20038;-79
2022/05/24 06:38:17;;;;;;;5.03;2.15;;;;;;;13.21;81.09;100348.41;5035845;28;20040;-78
2022/05/24 06:40:43;;;;;;;4.35;2.10;;;;;;;13.18;81.57;100353.00;5036314;28;20256;-78
2022/05/24 06:43:09;;;;;;;5.35;2.03;;;;;;;13.17;81.63;100356.56;5034454;28;20058;-78
2022/05/24 06:45:34;;;;;;;4.70;2.30;;;;;;;13.08;82.03;100357.97;5015502;28;20075;-78
2022/05/24 06:48:00;;;;;;;7.28;2.00;;;;;;;13.09;82.23;100370.16;5011572;28;20046;-78
2022/05/24 06:50:25;;;;;;;2.42;1.40;;;;;;;13.03;82.29;100371.38;4998656;28;20045;-78
2022/05/24 06:52:55;;;;;;;5.72;2.22;;;;;;;13.03;82.24;100370.53;5012510;28;20253;-78
2022/05/24 06:55:22;;;;;;;5.38;2.50;;;;;;;12.95;82.83;100368.38;5010230;28;20063;-79
2022/05/24 06:57:49;;;;;;;5.18;2.47;;;;;;;12.97;82.90;100366.50;5015958;28;20042;-79
2022/05/24 07:03:08;;;;;;;2.83;1.88;;;;;;;12.99;82.66;100358.53;5013594;28;20065;-78
2022/05/24 07:05:34;;;;;;;3.63;1.92;;;;;;;12.99;82.76;100361.16;5012778;28;20040;-78
2022/05/24 07:08:01;;;;;;;3.60;1.85;;;;;;;12.98;82.51;100368.16;4995278;28;20037;-78
2022/05/24 07:10:27;;;;;;;3.40;1.65;;;;;;;12.99;82.33;100380.38;4996978;28;20038;-78
2022/05/24 07:13:11;;;;;;;3.72;1.80;;;;;;;12.99;82.97;100384.81;5013305;28;20113;-78
2022/05/24 07:15:37;;;;;;;2.05;1.15;;;;;;;12.86;83.09;100389.88;5016974;28;20065;-78
2022/05/24 07:18:03;;;;;;;3.40;1.25;;;;;;;12.83;82.87;100400.59;5011021;28;20045;-78
2022/05/24 07:20:33;;;;;;;1.88;1.30;;;;;;;12.77;83.72;100395.69;4997168;28;20223;-78
2022/05/24 07:23:14;;;;;;;3.00;1.70;;;;;;;12.68;83.99;100397.06;5009006;28;20028;-79
2022/05/24 07:25:41;;;;;;;3.17;1.20;;;;;;;12.72;84.19;100403.00;5013601;28;20037;-78
2022/05/24 07:28:08;;;;;;;4.22;1.35;;;;;;;12.74;84.02;100401.97;4995234;28;20044;-79
2022/05/24 07:30:34;;;;;;;3.17;1.27;;;;;;;12.75;83.82;100411.56;5017038;28;20029;-78
2022/05/24 07:32:59;;;;;;;3.30;1.42;;;;;;;12.75;83.60;100405.44;5022577;28;20139;-78
2022/05/24 07:35:25;;;;;;;2.08;1.20;;;;;;;12.78;83.47;100402.63;5028075;28;20029;-79
2022/05/24 07:37:50;;;;;;;1.33;1.10;;;;;;;12.81;83.38;100410.34;4997554;28;20033;-78
2022/05/24 07:45:50;;;;;;;3.83;1.27;;;;;;;12.83;83.48;100408.47;5027046;28;20036;-79
2022/05/24 07:48:16;;;;;;;1.63;1.08;;;;;;;12.81;83.50;100416.44;5011245;28;20041;-79
2022/05/24 07:50:42;;;;;;;1.58;0.90;;;;;;;12.81;84.02;100419.06;5027778;28;20053;-79
2022/05/24 07:53:08;;;;;;;2.78;1.00;;;;;;;12.83;83.86;100424.25;5030299;28;20090;-78
2022/05/24 07:55:34;;;;;;;2.53;0.90;;;;;;;12.82;83.56;100426.03;5023561;28;20030;-79
2022/05/24 07:58:00;;;;;;;1.48;0.90;;;;;;;12.80;83.78;100433.13;5018626;28;20037;-79
2022/05/24 08:00:25;;;;;;;1.85;1.33;;;;;;;12.83;83.82;100422.47;5012348;28;20053;-78
2022/05/24 08:02:52;;;;;;;3.38;0.88;;;;;;;12.85;83.65;100435.53;5013981;28;20046;-78
2022/05/24 08:05:18;;;;;;;1.85;0.85;;;;;;;12.86;83.69;100429.31;5014777;28;20034;-78
2022/05/24 08:07:45;;;;;;;3.60;0.70;;;;;;;12.85;83.19;100443.41;5012690;28;20264;-78
2022/05/24 08:10:12;;;;;;;3.30;0.50;;;;;;;12.81;82.70;100434.84;5008620;28;20030;-79
2022/05/24 08:12:37;;;;;;;2.70;0.85;;;;;;;12.73;82.90;100447.56;5009405;28;20241;-78
2022/05/24 08:15:03;;;;;;;1.55;0.65;;;;;;;12.70;83.12;100453.00;4996430;28;20064;-79
2022/05/24 08:17:29;;;;;;;0.88;0.38;;;;;;;12.67;82.89;100458.41;5010699;28;20065;-79
2022/05/24 08:19:54;;;;;;;2.10;0.50;;;;;;;12.63;82.17;100464.78;5009698;28;20052;-78
2022/05/24 08:22:20;;;;;;;1.52;0.50;;;;;;;12.65;82.45;100469.00;5013029;28;20080;-78
2022/05/24 08:24:46;;;;;;;0.75;0.60;;;;;;;12.69;82.65;100477.56;5010790;28;20038;-78
2022/05/24 08:27:14;;;;;;;1.05;0.70;;;;;;;12.70;82.39;100473.16;5019237;28;20375;-79
2022/05/24 08:29:40;;;;;;;0.80;0.60;;;;;;;12.70;82.96;100476.66;5003875;28;20065;-78
2022/05/24 08:32:06;;;;;;;1.55;0.90;;;;;;;12.74;83.00;100480.78;5003042;28;20221;-78
2022/05/24 08:34:32;;;;;;;1.85;0.85;;;;;;;12.73;83.43;100473.81;5020955;28;20037;-78
2022/05/24 08:36:57;;;;;;;2.55;1.00;;;;;;;12.72;84.01;100487.06;4980306;28;20362;-78
2022/05/24 08:39:23;;;;;;;2.28;0.90;;;;;;;12.73;84.25;100483.50;4998514;28;20064;-79
2022/05/24 08:42:04;;;;;;;5.05;1.35;;;;;;;12.75;84.17;100492.13;5020088;28;20030;-78
2022/05/24 08:50:11;;;;;;;2.13;1.20;;;;;;;12.76;83.85;100504.34;5017204;28;20040;-78
2022/05/24 08:52:41;;;;;;;3.25;1.52;;;;;;;12.78;84.25;100502.50;5000696;28;20033;-78
2022/05/24 08:55:10;;;;;;;3.67;1.50;;;;;;;12.82;83.96;100507.50;5010217;28;20135;-78
2022/05/24 08:57:47;;;;;;;1.65;1.20;;;;;;;12.83;83.43;100506.56;5015701;28;20375;-79
2022/05/24 09:00:17;;;;;;;1.50;1.40;;;;;;;12.85;83.18;100519.63;5018088;28;20325;-78
2022/05/24 09:02:46;;;;;;;1.98;1.42;;;;;;;12.82;82.29;100520.66;5016661;28;20100;-78
2022/05/24 09:05:25;;;;;;;2.47;1.33;;;;;;;12.80;81.79;100543.50;5018061;28;20030;-78
2022/05/24 09:07:59;;;;;;;1.15;1.05;;;;;;;12.81;82.30;100549.63;5006182;28;20037;-78
2022/05/24 09:10:33;;;;;;;1.30;1.20;;;;;;;12.81;82.10;100547.00;5007002;28;20046;-78
2022/05/24 09:13:30;;;;;;;1.38;1.10;;;;;;;12.82;82.25;100552.19;5011317;28;20425;-78
2022/05/24 09:16:15;;;;;;;2.00;1.17;;;;;;;12.76;82.23;100555.13;5006685;28;20345;-78
2022/05/24 09:18:52;;;;;;;2.03;1.33;;;;;;;12.75;82.51;100561.31;5006759;28;20045;-78
2022/05/24 09:21:26;;;;;;;1.23;0.88;;;;;;;12.71;82.98;100562.41;5004224;28;20076;-79
2022/05/24 09:24:12;;;;;;;2.40;1.05;;;;;;;12.67;83.53;100574.00;5017996;28;20364;-78
2022/05/24 09:27:02;;;;;;;3.55;1.10;;;;;;;12.64;83.13;100566.28;4982792;28;20052;-79
2022/05/24 09:29:27;;;;;;;1.38;1.00;;;;;;;12.63;83.08;100573.31;5021660;28;20326;-79
2022/05/24 09:31:56;;;;;;;2.15;0.90;;;;;;;12.64;83.45;100572.41;5014497;28;20053;-78
2022/05/24 09:34:26;;;;;;;6.93;1.10;;;;;;;12.67;83.34;100580.09;4993895;28;20018;-78
2022/05/24 09:37:04;;;;;;;1.40;1.10;;;;;;;12.71;84.01;100585.22;5013363;28;20109;-78
2022/05/24 09:39:56;;;;;;;4.57;1.50;;;;;;;12.70;84.48;100580.88;5005042;28;20204;-78
2022/05/24 09:42:29;;;;;;;5.78;1.80;;;;;;;12.70;84.54;100600.13;5000841;28;20367;-79
2022/05/24 09:45:17;;;;;;;2.20;1.40;;;;;;;12.73;84.74;100599.94;4998638;28;20077;-78
2022/05/24 09:47:42;;;;;;;8.57;1.83;;;;;;;12.75;84.55;100606.00;5014032;28;20215;-78
2022/05/24 09:50:30;;;;;;;2.95;1.88;;;;;;;12.69;84.08;100608.94;5027864;28;20081;-78
2022/05/24 09:53:02;;;;;;;4.18;1.67;;;;;;;12.70;83.70;100604.50;5012554;28;20034;-79
2022/05/24 09:55:38;;;;;;;4.35;1.40;;;;;;;12.68;83.41;100618.59;5017016;28;20292;-78
2022/05/24 09:58:37;;;;;;;4.03;1.50;;;;;;;12.66;83.69;100604.69;5015962;28;20037;-78
2022/05/24 10:01:13;;;;;;;4.30;1.30;;;;;;;12.66;83.55;100604.69;5016173;28;20045;-78
2022/05/24 10:03:43;;;;;;;5.13;1.55;;;;;;;12.71;83.33;100617.56;5020328;28;20045;-78
2022/05/24 10:06:23;;;;;;;3.35;1.45;;;;;;;12.73;83.06;100620.97;5020906;28;20412;-78
2022/05/24 10:09:23;;;;;;;2.90;1.20;;;;;;;12.73;82.70;100634.09;5007009;28;20030;-78
2022/05/24 10:11:51;;;;;;;10.20;1.98;;;;;;;12.71;82.35;100635.13;5023166;28;20349;-78
2022/05/24 10:14:41;;;;;;;2.90;1.20;;;;;;;12.76;82.52;100651.50;5023678;28;20051;-78
2022/05/24 10:17:11;;;;;;;2.47;1.20;;;;;;;12.74;81.08;100651.59;5015401;28;20365;-78
2022/05/24 10:19:42;;;;;;;3.60;1.40;;;;;;;12.81;82.01;100655.59;5021132;28;20030;-78
2022/05/24 10:22:28;;;;;;;2.75;1.20;;;;;;;12.89;82.01;100649.06;5020982;28;20058;-78
2022/05/24 10:25:11;;;;;;;3.75;1.50;;;;;;;12.91;81.91;100662.97;5016981;28;20080;-78
2022/05/24 10:27:45;;;;;;;2.65;1.40;;;;;;;12.96;80.98;100667.06;5003548;28;20340;-78
2022/05/24 10:30:23;;;;;;;2.22;1.25;;;;;;;12.95;79.95;100660.13;5015589;28;20364;-78
2022/05/24 10:39:05;;;;;;;3.72;1.58;;;;;;;12.99;82.07;100659.00;5019536;28;20364;-78
2022/05/24 10:42:05;;;;;;;3.35;1.08;;;;;;;13.05;81.70;100673.59;5006212;28;20069;-78
2022/05/24 10:44:45;;;;;;;4.47;1.45;;;;;;;13.08;80.33;100681.34;5037798;28;20049;-78
2022/05/24 10:47:23;;;;;;;1.27;0.73;;;;;;;13.07;79.32;100664.69;5033705;28;20044;-78
2022/05/24 10:50:00;;;;;;;3.33;0.70;;;;;;;13.12;79.33;100663.63;5036064;28;20029;-78
2022/05/24 10:52:45;;;;;;;2.50;1.20;;;;;;;13.18;79.77;100664.13;5019815;28;20044;-78
2022/05/24 10:55:23;;;;;;;3.28;0.90;;;;;;;13.19;79.81;100657.94;5037477;28;20044;-78
2022/05/24 10:58:03;;;;;;;3.80;1.20;;;;;;;13.25;79.42;100675.16;5038955;28;20049;-78
2022/05/24 11:00:37;;;;;;;1.73;1.23;;;;;;;13.22;78.91;100659.53;5040148;28;20318;-78
2022/05/24 11:03:10;;;;;;;2.35;1.00;;;;;;;13.25;79.64;100672.53;5036410;28;20037;-78
2022/05/24 11:05:43;;;;;;;1.77;1.02;;;;;;;13.25;79.88;100685.69;5040239;28;20033;-78
2022/05/24 11:08:46;;;;;;;4.93;1.20;;;;;;;13.25;79.31;100683.88;5041468;28;20588;-77
2022/05/24 11:11:41;;;;;;;2.58;1.10;;;;;;;13.30;78.75;100674.88;5033972;28;20266;-78
2022/05/24 11:14:27;;;;;;;0.88;0.80;;;;;;;13.33;79.79;100669.50;5028940;28;20041;-78
2022/05/24 11:16:54;;;;;;;2.88;1.27;;;;;;;13.31;80.25;100681.91;5032736;28;20051;-78
2022/05/24 11:19:26;;;;;;;2.55;1.00;;;;;;;13.28;78.09;100682.03;5040740;28;20345;-78
2022/05/24 11:22:04;;;;;;;4.65;0.80;;;;;;;13.29;78.18;100686.38;5034091;28;20033;-78
2022/05/24 11:24:29;;;;;;;3.03;0.90;;;;;;;13.31;75.89;100682.75;5029751;28;20363;-78
2022/05/24 11:26:58;;;;;;;1.55;0.80;;;;;;;13.33;77.47;100687.91;5035184;28;20033;-78
2022/05/24 11:29:42;;;;;;;1.95;0.60;;;;;;;13.39;76.61;100687.59;5021454;28;20035;-78
2022/05/24 11:32:09;;;;;;;4.13;0.90;;;;;;;13.38;75.52;100701.66;5018911;28;20025;-77
2022/05/24 11:34:39;;;;;;;3.08;1.00;;;;;;;13.40;77.37;100691.91;5042382;28;20037;-78
2022/05/24 11:37:22;;;;;;;6.03;1.10;;;;;;;13.46;77.50;100706.50;5032927;28;20232;-78
2022/05/24 11:39:48;;;;;;;1.05;0.60;;;;;;;13.44;76.57;100706.59;5031580;28;20384;-78
2022/05/24 11:42:19;;;;;;;1.92;0.80;;;;;;;13.49;76.85;100709.81;5039624;28;20073;-78
2022/05/24 11:44:45;;;;;;;1.42;0.68;;;;;;;13.50;77.69;100716.78;5036047;28;20068;-77
2022/05/24 11:47:55;;;;;;;4.82;0.60;;;;;;;13.56;76.37;100726.13;5036370;28;20358;-78
2022/05/24 11:50:46;;;;;;;1.65;0.40;;;;;;;13.57;73.94;100706.75;5022643;28;20321;-78
2022/05/24 11:53:19;;;;;;;0.52;0.40;;;;;;;13.60;73.98;100711.84;5038156;28;20074;-78
2022/05/24 11:55:53;;;;;;;1.85;0.60;;;;;;;13.63;74.88;100722.22;5035668;28;20039;-78
2022/05/24 11:58:19;;;;;;;0.93;0.43;;;;;;;13.63;76.73;100722.22;5032619;28;20698;-78
2022/05/24 12:01:04;;;;;;;0.65;0.50;;;;;;;13.66;77.10;100716.81;5040690;28;20043;-77
2022/05/24 12:09:16;;;;;;;4.43;0.50;;;;;;;13.77;73.62;100731.97;5032205;28;20094;-78
2022/05/24 12:11:43;;;;;;;1.00;0.50;;;;;;;13.82;73.85;100737.84;5033248;28;20033;-77
2022/05/24 12:14:16;;;;;;;4.28;0.45;;;;;;;13.87;74.35;100743.69;5037531;28;20032;-77
2022/05/24 12:16:53;;;;;;;2.22;0.40;;;;;;;13.91;73.04;100741.75;5027826;28;20055;-78
2022/05/24 12:19:48;;;;;;;2.40;0.40;;;;;;;13.94;74.36;100745.03;5035108;28;20341;-78
2022/05/24 12:22:20;;;;;;;0.98;0.40;;;;;;;13.96;72.99;100751.06;5031945;28;20037;-77
2022/05/24 12:24:48;;;;;;;0.75;0.40;;;;;;;13.93;71.19;100747.75;5036487;28;20033;-77
2022/05/24 12:27:41;;;;;;;1.60;0.40;;;;;;;13.89;70.15;100749.72;5033060;28;20037;-78